sensor_id;sensor_type;location;lat;lon;timestamp;temperature;humidity
59881;DHT22;45751;51.380;10.326;2023-04-03T00:00:06;2.90;78.30
59881;DHT22;45751;51.380;10.326;2023-04-03T00:02:33;2.90;78.70
59881;DHT22;45751;51.380;10.326;2023-04-03T00:05:00;2.80;79.00
59881;DHT22;45751;51.380;10.326;2023-04-03T00:07:27;2.80;79.30
59881;DHT22;45751;51.380;10.326;2023-04-03T00:09:54;2.70;79.40
59881;DHT22;45751;51.380;10.326;2023-04-03T00:12:21;2.70;79.80
59881;DHT22;45751;51.380;10.326;2023-04-03T00:14:49;2.60;80.10
59881;DHT22;45751;51.380;10.326;2023-04-03T00:17:16;2.60;80.40
59881;DHT22;45751;51.380;10.326;2023-04-03T00:19:43;2.50;80.70
59881;DHT22;45751;51.380;10.326;2023-04-03T00:22:10;2.50;81.40
59881;DHT22;45751;51.380;10.326;2023-04-03T00:24:36;2.40;81.80
59881;DHT22;45751;51.380;10.326;2023-04-03T00:27:03;2.40;82.30
59881;DHT22;45751;51.380;10.326;2023-04-03T00:29:30;2.30;82.70
59881;DHT22;45751;51.380;10.326;2023-04-03T00:31:57;2.30;83.10
59881;DHT22;45751;51.380;10.326;2023-04-03T00:34:24;2.30;83.60
59881;DHT22;45751;51.380;10.326;2023-04-03T00:36:51;2.20;84.00
59881;DHT22;45751;51.380;10.326;2023-04-03T00:39:18;2.20;84.20
59881;DHT22;45751;51.380;10.326;2023-04-03T00:41:45;2.20;84.50
59881;DHT22;45751;51.380;10.326;2023-04-03T00:47:08;2.10;84.90
59881;DHT22;45751;51.380;10.326;2023-04-03T00:49:36;2.00;86.30
59881;DHT22;45751;51.380;10.326;2023-04-03T00:52:05;2.00;85.30
59881;DHT22;45751;51.380;10.326;2023-04-03T00:54:35;2.00;85.50
59881;DHT22;45751;51.380;10.326;2023-04-03T00:57:03;1.90;85.50
59881;DHT22;45751;51.380;10.326;2023-04-03T00:59:35;1.90;86.00
59881;DHT22;45751;51.380;10.326;2023-04-03T01:02:03;1.80;86.10
59881;DHT22;45751;51.380;10.326;2023-04-03T01:07:04;1.80;86.40
59881;DHT22;45751;51.380;10.326;2023-04-03T01:09:32;1.70;87.60
59881;DHT22;45751;51.380;10.326;2023-04-03T01:12:20;1.70;86.90
59881;DHT22;45751;51.380;10.326;2023-04-03T01:14:53;1.60;87.10
59881;DHT22;45751;51.380;10.326;2023-04-03T01:25:44;1.60;88.10
59881;DHT22;45751;51.380;10.326;2023-04-03T01:28:24;1.50;87.90
59881;DHT22;45751;51.380;10.326;2023-04-03T01:33:21;1.40;88.00
59881;DHT22;45751;51.380;10.326;2023-04-03T01:35:48;1.40;88.00
59881;DHT22;45751;51.380;10.326;2023-04-03T01:38:15;1.40;87.90
59881;DHT22;45751;51.380;10.326;2023-04-03T01:40:42;1.40;88.10
59881;DHT22;45751;51.380;10.326;2023-04-03T01:43:10;1.30;88.10
59881;DHT22;45751;51.380;10.326;2023-04-03T01:45:37;1.30;88.20
59881;DHT22;45751;51.380;10.326;2023-04-03T01:48:04;1.30;88.10
59881;DHT22;45751;51.380;10.326;2023-04-03T01:50:31;1.20;88.30
59881;DHT22;45751;51.380;10.326;2023-04-03T01:52:59;1.20;88.40
59881;DHT22;45751;51.380;10.326;2023-04-03T01:55:26;1.10;88.40
59881;DHT22;45751;51.380;10.326;2023-04-03T01:57:54;1.10;88.60
59881;DHT22;45751;51.380;10.326;2023-04-03T02:00:21;1.10;88.50
59881;DHT22;45751;51.380;10.326;2023-04-03T02:02:49;1.10;88.50
59881;DHT22;45751;51.380;10.326;2023-04-03T02:05:16;1.10;88.60
59881;DHT22;45751;51.380;10.326;2023-04-03T02:07:43;1.00;88.60
59881;DHT22;45751;51.380;10.326;2023-04-03T02:10:10;1.10;88.80
59881;DHT22;45751;51.380;10.326;2023-04-03T02:12:37;1.00;88.70
59881;DHT22;45751;51.380;10.326;2023-04-03T02:15:04;1.00;88.70
59881;DHT22;45751;51.380;10.326;2023-04-03T02:17:31;0.90;88.90
59881;DHT22;45751;51.380;10.326;2023-04-03T02:19:58;0.90;89.10
59881;DHT22;45751;51.380;10.326;2023-04-03T02:22:25;0.90;89.30
59881;DHT22;45751;51.380;10.326;2023-04-03T02:24:52;0.90;89.50
59881;DHT22;45751;51.380;10.326;2023-04-03T02:27:20;0.90;89.60
59881;DHT22;45751;51.380;10.326;2023-04-03T02:29:48;0.90;89.90
59881;DHT22;45751;51.380;10.326;2023-04-03T02:32:15;0.80;90.00
59881;DHT22;45751;51.380;10.326;2023-04-03T02:34:43;0.80;90.10
59881;DHT22;45751;51.380;10.326;2023-04-03T02:37:12;0.80;90.00
59881;DHT22;45751;51.380;10.326;2023-04-03T02:39:39;0.80;90.00
59881;DHT22;45751;51.380;10.326;2023-04-03T02:42:06;0.80;90.00
59881;DHT22;45751;51.380;10.326;2023-04-03T02:44:34;0.80;90.00
59881;DHT22;45751;51.380;10.326;2023-04-03T02:47:02;0.70;90.10
59881;DHT22;45751;51.380;10.326;2023-04-03T02:49:29;0.70;90.00
59881;DHT22;45751;51.380;10.326;2023-04-03T02:51:56;0.70;89.90
59881;DHT22;45751;51.380;10.326;2023-04-03T02:54:23;0.70;89.90
59881;DHT22;45751;51.380;10.326;2023-04-03T02:56:56;0.70;90.00
59881;DHT22;45751;51.380;10.326;2023-04-03T02:59:24;0.60;90.00
59881;DHT22;45751;51.380;10.326;2023-04-03T03:01:52;0.60;90.10
59881;DHT22;45751;51.380;10.326;2023-04-03T03:04:19;0.60;90.20
59881;DHT22;45751;51.380;10.326;2023-04-03T03:06:46;0.60;90.30
59881;DHT22;45751;51.380;10.326;2023-04-03T03:09:13;0.50;90.40
59881;DHT22;45751;51.380;10.326;2023-04-03T03:11:41;0.50;90.40
59881;DHT22;45751;51.380;10.326;2023-04-03T03:14:08;0.50;90.40
59881;DHT22;45751;51.380;10.326;2023-04-03T03:16:35;0.50;90.40
59881;DHT22;45751;51.380;10.326;2023-04-03T03:19:02;0.50;90.40
59881;DHT22;45751;51.380;10.326;2023-04-03T03:21:29;0.50;90.40
59881;DHT22;45751;51.380;10.326;2023-04-03T03:23:57;0.40;90.40
59881;DHT22;45751;51.380;10.326;2023-04-03T03:26:23;0.40;90.50
59881;DHT22;45751;51.380;10.326;2023-04-03T03:28:51;0.40;90.50
59881;DHT22;45751;51.380;10.326;2023-04-03T03:31:18;0.40;90.60
59881;DHT22;45751;51.380;10.326;2023-04-03T03:33:45;0.40;90.60
59881;DHT22;45751;51.380;10.326;2023-04-03T03:36:12;0.40;90.80
59881;DHT22;45751;51.380;10.326;2023-04-03T03:38:39;0.30;90.80
59881;DHT22;45751;51.380;10.326;2023-04-03T03:41:06;0.30;90.90
59881;DHT22;45751;51.380;10.326;2023-04-03T03:43:34;0.30;90.90
59881;DHT22;45751;51.380;10.326;2023-04-03T03:46:02;0.30;90.90
59881;DHT22;45751;51.380;10.326;2023-04-03T03:48:29;0.20;91.00
59881;DHT22;45751;51.380;10.326;2023-04-03T03:50:56;0.20;91.10
59881;DHT22;45751;51.380;10.326;2023-04-03T03:53:27;0.20;91.20
59881;DHT22;45751;51.380;10.326;2023-04-03T03:55:58;0.20;91.70
59881;DHT22;45751;51.380;10.326;2023-04-03T03:58:27;0.20;91.30
59881;DHT22;45751;51.380;10.326;2023-04-03T04:00:54;0.10;91.40
59881;DHT22;45751;51.380;10.326;2023-04-03T04:03:21;0.10;91.60
59881;DHT22;45751;51.380;10.326;2023-04-03T04:05:50;0.10;91.60
59881;DHT22;45751;51.380;10.326;2023-04-03T04:08:17;0.00;91.80
59881;DHT22;45751;51.380;10.326;2023-04-03T04:10:45;0.00;91.90
59881;DHT22;45751;51.380;10.326;2023-04-03T04:13:14;0.00;92.00
59881;DHT22;45751;51.380;10.326;2023-04-03T04:15:42;0.00;92.10
59881;DHT22;45751;51.380;10.326;2023-04-03T04:18:09;-0.10;92.10
59881;DHT22;45751;51.380;10.326;2023-04-03T04:20:36;-0.10;92.20
59881;DHT22;45751;51.380;10.326;2023-04-03T04:23:03;-0.10;92.30
59881;DHT22;45751;51.380;10.326;2023-04-03T04:25:30;-0.10;92.30
59881;DHT22;45751;51.380;10.326;2023-04-03T04:27:57;-0.10;92.40
59881;DHT22;45751;51.380;10.326;2023-04-03T04:30:24;-0.10;92.50
59881;DHT22;45751;51.380;10.326;2023-04-03T04:32:53;-0.10;92.50
59881;DHT22;45751;51.380;10.326;2023-04-03T04:35:21;-0.20;92.60
59881;DHT22;45751;51.380;10.326;2023-04-03T04:37:50;-0.20;92.70
59881;DHT22;45751;51.380;10.326;2023-04-03T04:40:18;-0.20;92.80
59881;DHT22;45751;51.380;10.326;2023-04-03T04:42:45;-0.20;93.00
59881;DHT22;45751;51.380;10.326;2023-04-03T04:45:12;-0.20;93.10
59881;DHT22;45751;51.380;10.326;2023-04-03T04:47:42;-0.20;93.20
59881;DHT22;45751;51.380;10.326;2023-04-03T04:50:09;-0.20;93.20
59881;DHT22;45751;51.380;10.326;2023-04-03T04:52:37;-0.20;93.20
59881;DHT22;45751;51.380;10.326;2023-04-03T04:55:06;-0.20;93.20
59881;DHT22;45751;51.380;10.326;2023-04-03T04:57:33;-0.20;93.10
59881;DHT22;45751;51.380;10.326;2023-04-03T05:00:03;-0.20;93.20
59881;DHT22;45751;51.380;10.326;2023-04-03T05:02:30;-0.20;93.30
59881;DHT22;45751;51.380;10.326;2023-04-03T05:04:58;-0.20;93.30
59881;DHT22;45751;51.380;10.326;2023-04-03T05:07:27;-0.20;93.40
59881;DHT22;45751;51.380;10.326;2023-04-03T05:09:56;-0.30;93.40
59881;DHT22;45751;51.380;10.326;2023-04-03T05:12:23;-0.30;93.40
59881;DHT22;45751;51.380;10.326;2023-04-03T05:14:55;-0.20;93.50
59881;DHT22;45751;51.380;10.326;2023-04-03T05:17:23;-0.30;93.60
59881;DHT22;45751;51.380;10.326;2023-04-03T05:19:53;-0.20;93.70
59881;DHT22;45751;51.380;10.326;2023-04-03T05:22:21;-0.30;93.80
59881;DHT22;45751;51.380;10.326;2023-04-03T05:24:50;-0.30;93.80
59881;DHT22;45751;51.380;10.326;2023-04-03T05:27:18;-0.30;93.80
59881;DHT22;45751;51.380;10.326;2023-04-03T05:29:52;-0.30;94.00
59881;DHT22;45751;51.380;10.326;2023-04-03T05:32:22;-0.30;94.10
59881;DHT22;45751;51.380;10.326;2023-04-03T05:34:56;-0.30;94.20
59881;DHT22;45751;51.380;10.326;2023-04-03T05:37:27;-0.30;94.40
59881;DHT22;45751;51.380;10.326;2023-04-03T05:39:54;-0.30;94.50
59881;DHT22;45751;51.380;10.326;2023-04-03T05:42:22;-0.30;94.50
59881;DHT22;45751;51.380;10.326;2023-04-03T05:44:49;-0.30;94.60
59881;DHT22;45751;51.380;10.326;2023-04-03T05:47:17;-0.30;94.60
59881;DHT22;45751;51.380;10.326;2023-04-03T05:49:45;-0.30;94.70
59881;DHT22;45751;51.380;10.326;2023-04-03T05:52:27;-0.30;94.70
59881;DHT22;45751;51.380;10.326;2023-04-03T05:54:55;-0.30;94.70
59881;DHT22;45751;51.380;10.326;2023-04-03T05:57:27;-0.30;94.70
59881;DHT22;45751;51.380;10.326;2023-04-03T05:59:54;-0.30;94.60
59881;DHT22;45751;51.380;10.326;2023-04-03T06:02:23;-0.20;94.50
59881;DHT22;45751;51.380;10.326;2023-04-03T06:04:50;-0.20;94.50
59881;DHT22;45751;51.380;10.326;2023-04-03T06:07:21;-0.20;94.40
59881;DHT22;45751;51.380;10.326;2023-04-03T06:09:50;-0.20;94.30
59881;DHT22;45751;51.380;10.326;2023-04-03T06:12:20;-0.20;94.30
59881;DHT22;45751;51.380;10.326;2023-04-03T06:14:47;-0.20;94.20
59881;DHT22;45751;51.380;10.326;2023-04-03T06:17:17;-0.20;94.30
59881;DHT22;45751;51.380;10.326;2023-04-03T06:19:45;-0.20;94.30
59881;DHT22;45751;51.380;10.326;2023-04-03T06:22:12;-0.20;94.20
59881;DHT22;45751;51.380;10.326;2023-04-03T06:24:39;-0.10;93.90
59881;DHT22;45751;51.380;10.326;2023-04-03T06:27:07;-0.10;93.80
59881;DHT22;45751;51.380;10.326;2023-04-03T06:29:34;-0.10;93.50
59881;DHT22;45751;51.380;10.326;2023-04-03T06:32:00;-0.10;93.40
59881;DHT22;45751;51.380;10.326;2023-04-03T06:34:27;-0.10;93.30
59881;DHT22;45751;51.380;10.326;2023-04-03T06:36:54;-0.10;93.40
59881;DHT22;45751;51.380;10.326;2023-04-03T06:39:22;0.00;93.30
59881;DHT22;45751;51.380;10.326;2023-04-03T06:41:51;-0.10;93.20
59881;DHT22;45751;51.380;10.326;2023-04-03T06:44:26;0.00;93.00
59881;DHT22;45751;51.380;10.326;2023-04-03T06:46:53;0.00;93.00
59881;DHT22;45751;51.380;10.326;2023-04-03T06:49:21;0.00;92.90
59881;DHT22;45751;51.380;10.326;2023-04-03T06:51:48;0.00;92.70
59881;DHT22;45751;51.380;10.326;2023-04-03T06:54:15;0.00;92.40
59881;DHT22;45751;51.380;10.326;2023-04-03T06:56:42;0.10;91.80
59881;DHT22;45751;51.380;10.326;2023-04-03T06:59:09;0.10;91.20
59881;DHT22;45751;51.380;10.326;2023-04-03T07:01:37;0.10;90.80
59881;DHT22;45751;51.380;10.326;2023-04-03T07:04:04;0.10;90.70
59881;DHT22;45751;51.380;10.326;2023-04-03T07:06:30;0.10;90.60
59881;DHT22;45751;51.380;10.326;2023-04-03T07:08:59;0.10;90.70
59881;DHT22;45751;51.380;10.326;2023-04-03T07:11:27;0.20;90.70
59881;DHT22;45751;51.380;10.326;2023-04-03T07:13:54;0.20;90.50
59881;DHT22;45751;51.380;10.326;2023-04-03T07:16:21;0.20;90.30
59881;DHT22;45751;51.380;10.326;2023-04-03T07:18:48;0.20;90.40
59881;DHT22;45751;51.380;10.326;2023-04-03T07:21:16;0.30;90.40
59881;DHT22;45751;51.380;10.326;2023-04-03T07:23:42;0.30;90.00
59881;DHT22;45751;51.380;10.326;2023-04-03T07:26:09;0.30;89.70
59881;DHT22;45751;51.380;10.326;2023-04-03T07:28:36;0.30;90.00
59881;DHT22;45751;51.380;10.326;2023-04-03T07:31:06;0.40;89.70
59881;DHT22;45751;51.380;10.326;2023-04-03T07:33:37;0.40;88.90
59881;DHT22;45751;51.380;10.326;2023-04-03T07:36:06;0.40;88.60
59881;DHT22;45751;51.380;10.326;2023-04-03T07:38:35;0.50;88.50
59881;DHT22;45751;51.380;10.326;2023-04-03T07:41:02;0.50;88.60
59881;DHT22;45751;51.380;10.326;2023-04-03T07:43:30;0.60;87.90
59881;DHT22;45751;51.380;10.326;2023-04-03T07:45:57;0.60;87.20
59881;DHT22;45751;51.380;10.326;2023-04-03T07:48:25;0.70;86.60
59881;DHT22;45751;51.380;10.326;2023-04-03T07:50:52;0.70;86.10
59881;DHT22;45751;51.380;10.326;2023-04-03T07:53:19;0.70;86.00
59881;DHT22;45751;51.380;10.326;2023-04-03T07:55:47;0.80;85.90
59881;DHT22;45751;51.380;10.326;2023-04-03T07:58:17;0.90;86.10
59881;DHT22;45751;51.380;10.326;2023-04-03T08:00:45;0.90;86.50
59881;DHT22;45751;51.380;10.326;2023-04-03T08:03:12;1.00;86.10
59881;DHT22;45751;51.380;10.326;2023-04-03T08:05:44;1.10;86.00
59881;DHT22;45751;51.380;10.326;2023-04-03T08:08:15;1.10;85.50
59881;DHT22;45751;51.380;10.326;2023-04-03T08:10:49;1.20;85.10
59881;DHT22;45751;51.380;10.326;2023-04-03T08:13:17;1.20;85.20
59881;DHT22;45751;51.380;10.326;2023-04-03T08:15:44;1.30;85.20
59881;DHT22;45751;51.380;10.326;2023-04-03T08:18:11;1.30;84.70
59881;DHT22;45751;51.380;10.326;2023-04-03T08:20:38;1.30;84.00
59881;DHT22;45751;51.380;10.326;2023-04-03T08:23:07;1.40;83.00
59881;DHT22;45751;51.380;10.326;2023-04-03T08:25:38;1.40;82.60
59881;DHT22;45751;51.380;10.326;2023-04-03T08:28:05;1.40;81.10
59881;DHT22;45751;51.380;10.326;2023-04-03T08:30:32;1.40;81.80
59881;DHT22;45751;51.380;10.326;2023-04-03T08:33:03;1.50;81.80
59881;DHT22;45751;51.380;10.326;2023-04-03T08:35:30;1.60;81.90
59881;DHT22;45751;51.380;10.326;2023-04-03T08:37:57;1.50;81.70
59881;DHT22;45751;51.380;10.326;2023-04-03T08:40:24;1.70;82.00
59881;DHT22;45751;51.380;10.326;2023-04-03T08:48:19;1.80;80.50
59881;DHT22;45751;51.380;10.326;2023-04-03T08:50:50;1.90;79.70
59881;DHT22;45751;51.380;10.326;2023-04-03T08:53:21;2.00;79.00
59881;DHT22;45751;51.380;10.326;2023-04-03T08:55:50;2.10;78.20
59881;DHT22;45751;51.380;10.326;2023-04-03T08:58:25;2.20;76.90
59881;DHT22;45751;51.380;10.326;2023-04-03T09:01:26;2.30;75.90
59881;DHT22;45751;51.380;10.326;2023-04-03T09:03:51;2.30;75.40
59881;DHT22;45751;51.380;10.326;2023-04-03T09:06:25;2.40;74.90
59881;DHT22;45751;51.380;10.326;2023-04-03T09:14:49;2.50;74.00
59881;DHT22;45751;51.380;10.326;2023-04-03T09:22:43;2.50;74.00
59881;DHT22;45751;51.380;10.326;2023-04-03T09:25:27;2.50;74.50
59881;DHT22;45751;51.380;10.326;2023-04-03T09:27:58;2.50;73.10
59881;DHT22;45751;51.380;10.326;2023-04-03T09:30:26;2.50;72.50
59881;DHT22;45751;51.380;10.326;2023-04-03T09:32:56;2.50;72.90
59881;DHT22;45751;51.380;10.326;2023-04-03T09:35:24;2.50;73.50
59881;DHT22;45751;51.380;10.326;2023-04-03T09:38:16;2.60;72.50
59881;DHT22;45751;51.380;10.326;2023-04-03T09:40:45;2.60;72.80
59881;DHT22;45751;51.380;10.326;2023-04-03T09:43:26;2.60;71.40
59881;DHT22;45751;51.380;10.326;2023-04-03T09:45:54;2.70;71.10
59881;DHT22;45751;51.380;10.326;2023-04-03T09:48:24;2.70;71.20
59881;DHT22;45751;51.380;10.326;2023-04-03T09:50:53;2.60;70.70
59881;DHT22;45751;51.380;10.326;2023-04-03T09:53:36;2.60;70.40
59881;DHT22;45751;51.380;10.326;2023-04-03T09:56:25;2.70;71.00
59881;DHT22;45751;51.380;10.326;2023-04-03T10:06:43;2.90;71.40
59881;DHT22;45751;51.380;10.326;2023-04-03T10:12:10;3.20;70.80
59881;DHT22;45751;51.380;10.326;2023-04-03T10:14:39;3.30;70.00
59881;DHT22;45751;51.380;10.326;2023-04-03T10:20:00;3.40;69.50
59881;DHT22;45751;51.380;10.326;2023-04-03T10:23:02;3.50;68.60
59881;DHT22;45751;51.380;10.326;2023-04-03T10:25:40;3.80;67.70
59881;DHT22;45751;51.380;10.326;2023-04-03T10:28:46;3.50;67.10
59881;DHT22;45751;51.380;10.326;2023-04-03T10:34:19;3.40;67.00
59881;DHT22;45751;51.380;10.326;2023-04-03T10:39:53;3.40;67.60
59881;DHT22;45751;51.380;10.326;2023-04-03T10:42:45;3.30;67.50
59881;DHT22;45751;51.380;10.326;2023-04-03T10:52:57;3.30;68.30
59881;DHT22;45751;51.380;10.326;2023-04-03T10:55:48;3.40;68.50
59881;DHT22;45751;51.380;10.326;2023-04-03T10:58:26;3.50;67.70
59881;DHT22;45751;51.380;10.326;2023-04-03T11:00:55;3.60;67.90
59881;DHT22;45751;51.380;10.326;2023-04-03T11:03:30;3.70;67.30
59881;DHT22;45751;51.380;10.326;2023-04-03T11:06:02;3.80;66.30
59881;DHT22;45751;51.380;10.326;2023-04-03T11:08:41;3.80;65.40
59881;DHT22;45751;51.380;10.326;2023-04-03T11:11:20;3.80;65.10
59881;DHT22;45751;51.380;10.326;2023-04-03T11:16:23;3.80;65.60
59881;DHT22;45751;51.380;10.326;2023-04-03T11:19:01;3.80;66.10
59881;DHT22;45751;51.380;10.326;2023-04-03T11:21:33;3.80;66.70
59881;DHT22;45751;51.380;10.326;2023-04-03T11:24:05;3.80;67.10
59881;DHT22;45751;51.380;10.326;2023-04-03T11:26:38;3.80;66.80
59881;DHT22;45751;51.380;10.326;2023-04-03T11:29:10;3.90;67.50
59881;DHT22;45751;51.380;10.326;2023-04-03T11:34:44;4.10;67.20
59881;DHT22;45751;51.380;10.326;2023-04-03T11:37:34;4.10;66.30
59881;DHT22;45751;51.380;10.326;2023-04-03T11:40:26;4.20;66.20
59881;DHT22;45751;51.380;10.326;2023-04-03T11:51:01;4.30;64.40
59881;DHT22;45751;51.380;10.326;2023-04-03T12:04:11;4.40;62.80
59881;DHT22;45751;51.380;10.326;2023-04-03T12:06:42;4.40;63.20
59881;DHT22;45751;51.380;10.326;2023-04-03T12:11:56;4.60;63.30
59881;DHT22;45751;51.380;10.326;2023-04-03T12:14:24;4.60;64.00
59881;DHT22;45751;51.380;10.326;2023-04-03T12:16:54;4.70;63.70
59881;DHT22;45751;51.380;10.326;2023-04-03T12:19:36;4.80;63.10
59881;DHT22;45751;51.380;10.326;2023-04-03T12:22:09;5.00;63.50
59881;DHT22;45751;51.380;10.326;2023-04-03T12:24:38;5.10;63.00
59881;DHT22;45751;51.380;10.326;2023-04-03T12:32:55;5.50;60.60
59881;DHT22;45751;51.380;10.326;2023-04-03T12:35:58;5.60;59.40
59881;DHT22;45751;51.380;10.326;2023-04-03T12:41:40;5.60;59.50
59881;DHT22;45751;51.380;10.326;2023-04-03T12:46:51;5.50;59.10
59881;DHT22;45751;51.380;10.326;2023-04-03T12:49:39;5.50;58.40
59881;DHT22;45751;51.380;10.326;2023-04-03T12:55:13;5.60;59.00
59881;DHT22;45751;51.380;10.326;2023-04-03T12:57:44;5.80;58.40
59881;DHT22;45751;51.380;10.326;2023-04-03T13:02:56;6.10;57.30
59881;DHT22;45751;51.380;10.326;2023-04-03T13:05:24;6.20;56.20
59881;DHT22;45751;51.380;10.326;2023-04-03T13:08:02;6.20;56.10
59881;DHT22;45751;51.380;10.326;2023-04-03T13:10:30;6.30;56.00
59881;DHT22;45751;51.380;10.326;2023-04-03T13:13:07;6.40;55.90
59881;DHT22;45751;51.380;10.326;2023-04-03T13:16:00;6.60;56.90
59881;DHT22;45751;51.380;10.326;2023-04-03T13:18:36;6.60;55.20
59881;DHT22;45751;51.380;10.326;2023-04-03T13:21:12;6.50;55.70
59881;DHT22;45751;51.380;10.326;2023-04-03T13:23:43;6.30;55.90
59881;DHT22;45751;51.380;10.326;2023-04-03T13:26:11;6.30;55.60
59881;DHT22;45751;51.380;10.326;2023-04-03T13:28:39;6.20;55.50
59881;DHT22;45751;51.380;10.326;2023-04-03T13:34:03;6.00;55.80
59881;DHT22;45751;51.380;10.326;2023-04-03T13:39:34;5.90;55.80
59881;DHT22;45751;51.380;10.326;2023-04-03T13:42:24;5.90;56.30
59881;DHT22;45751;51.380;10.326;2023-04-03T13:47:47;5.90;56.10
59881;DHT22;45751;51.380;10.326;2023-04-03T13:50:22;5.90;56.30
59881;DHT22;45751;51.380;10.326;2023-04-03T13:53:08;5.90;56.10
59881;DHT22;45751;51.380;10.326;2023-04-03T13:55:58;6.00;56.30
59881;DHT22;45751;51.380;10.326;2023-04-03T13:58:29;6.20;55.20
59881;DHT22;45751;51.380;10.326;2023-04-03T14:01:17;6.40;54.20
59881;DHT22;45751;51.380;10.326;2023-04-03T14:04:00;6.60;54.20
59881;DHT22;45751;51.380;10.326;2023-04-03T14:06:27;7.00;54.90
59881;DHT22;45751;51.380;10.326;2023-04-03T14:08:55;7.10;54.10
59881;DHT22;45751;51.380;10.326;2023-04-03T14:11:26;7.20;53.90
59881;DHT22;45751;51.380;10.326;2023-04-03T14:13:58;7.60;53.30
59881;DHT22;45751;51.380;10.326;2023-04-03T14:16:30;7.80;53.30
59881;DHT22;45751;51.380;10.326;2023-04-03T14:18:57;8.00;52.10
59881;DHT22;45751;51.380;10.326;2023-04-03T14:21:24;8.00;50.90
59881;DHT22;45751;51.380;10.326;2023-04-03T14:23:51;7.90;50.00
59881;DHT22;45751;51.380;10.326;2023-04-03T14:26:21;7.60;50.50
59881;DHT22;45751;51.380;10.326;2023-04-03T14:28:52;7.70;51.10
59881;DHT22;45751;51.380;10.326;2023-04-03T14:31:19;7.70;50.90
59881;DHT22;45751;51.380;10.326;2023-04-03T14:33:47;7.90;51.10
59881;DHT22;45751;51.380;10.326;2023-04-03T14:36:23;8.00;50.50
59881;DHT22;45751;51.380;10.326;2023-04-03T14:38:53;8.10;49.40
59881;DHT22;45751;51.380;10.326;2023-04-03T14:41:23;8.30;48.60
59881;DHT22;45751;51.380;10.326;2023-04-03T14:43:51;8.30;48.40
59881;DHT22;45751;51.380;10.326;2023-04-03T14:46:39;8.60;48.30
59881;DHT22;45751;51.380;10.326;2023-04-03T14:49:25;8.70;47.90
59881;DHT22;45751;51.380;10.326;2023-04-03T14:51:53;8.80;48.30
59881;DHT22;45751;51.380;10.326;2023-04-03T14:54:22;8.80;48.70
59881;DHT22;45751;51.380;10.326;2023-04-03T14:56:53;8.90;48.00
59881;DHT22;45751;51.380;10.326;2023-04-03T14:59:21;9.10;47.70
59881;DHT22;45751;51.380;10.326;2023-04-03T15:01:49;9.20;47.30
59881;DHT22;45751;51.380;10.326;2023-04-03T15:04:18;9.10;46.60
59881;DHT22;45751;51.380;10.326;2023-04-03T15:06:47;9.10;46.00
59881;DHT22;45751;51.380;10.326;2023-04-03T15:09:23;8.90;45.50
59881;DHT22;45751;51.380;10.326;2023-04-03T15:11:52;8.70;45.40
59881;DHT22;45751;51.380;10.326;2023-04-03T15:14:19;8.50;45.80
59881;DHT22;45751;51.380;10.326;2023-04-03T15:17:06;8.30;46.40
59881;DHT22;45751;51.380;10.326;2023-04-03T15:19:37;8.30;47.50
59881;DHT22;45751;51.380;10.326;2023-04-03T15:22:05;8.50;47.70
59881;DHT22;45751;51.380;10.326;2023-04-03T15:24:32;8.70;47.80
59881;DHT22;45751;51.380;10.326;2023-04-03T15:27:00;8.80;47.50
59881;DHT22;45751;51.380;10.326;2023-04-03T15:29:27;8.90;46.30
59881;DHT22;45751;51.380;10.326;2023-04-03T15:31:54;8.80;46.20
59881;DHT22;45751;51.380;10.326;2023-04-03T15:34:22;8.70;46.00
59881;DHT22;45751;51.380;10.326;2023-04-03T15:36:49;8.60;46.10
59881;DHT22;45751;51.380;10.326;2023-04-03T15:39:19;8.60;46.20
59881;DHT22;45751;51.380;10.326;2023-04-03T15:41:47;8.70;46.80
59881;DHT22;45751;51.380;10.326;2023-04-03T15:44:14;8.80;46.40
59881;DHT22;45751;51.380;10.326;2023-04-03T15:46:48;9.00;46.20
59881;DHT22;45751;51.380;10.326;2023-04-03T15:49:19;9.20;45.70
59881;DHT22;45751;51.380;10.326;2023-04-03T15:51:47;9.30;45.10
59881;DHT22;45751;51.380;10.326;2023-04-03T15:54:15;9.40;45.10
59881;DHT22;45751;51.380;10.326;2023-04-03T15:56:42;9.60;45.10
59881;DHT22;45751;51.380;10.326;2023-04-03T15:59:09;9.70;44.50
59881;DHT22;45751;51.380;10.326;2023-04-03T16:01:37;9.60;44.10
59881;DHT22;45751;51.380;10.326;2023-04-03T16:04:07;9.50;44.50
59881;DHT22;45751;51.380;10.326;2023-04-03T16:06:35;9.30;44.00
59881;DHT22;45751;51.380;10.326;2023-04-03T16:09:02;9.10;44.10
59881;DHT22;45751;51.380;10.326;2023-04-03T16:11:29;9.00;44.00
59881;DHT22;45751;51.380;10.326;2023-04-03T16:13:56;8.80;44.60
59881;DHT22;45751;51.380;10.326;2023-04-03T16:16:24;8.60;45.30
59881;DHT22;45751;51.380;10.326;2023-04-03T16:18:54;8.50;45.30
59881;DHT22;45751;51.380;10.326;2023-04-03T16:21:22;8.30;45.20
59881;DHT22;45751;51.380;10.326;2023-04-03T16:23:49;8.20;45.80
59881;DHT22;45751;51.380;10.326;2023-04-03T16:26:16;8.00;46.00
59881;DHT22;45751;51.380;10.326;2023-04-03T16:28:44;7.90;46.10
59881;DHT22;45751;51.380;10.326;2023-04-03T16:31:11;7.70;45.90
59881;DHT22;45751;51.380;10.326;2023-04-03T16:33:38;7.60;46.50
59881;DHT22;45751;51.380;10.326;2023-04-03T16:36:05;7.50;47.70
59881;DHT22;45751;51.380;10.326;2023-04-03T16:38:32;7.30;46.40
59881;DHT22;45751;51.380;10.326;2023-04-03T16:40:59;7.20;46.90
59881;DHT22;45751;51.380;10.326;2023-04-03T16:43:32;7.00;47.30
59881;DHT22;45751;51.380;10.326;2023-04-03T16:45:59;7.10;47.40
59881;DHT22;45751;51.380;10.326;2023-04-03T16:48:29;6.90;48.70
59881;DHT22;45751;51.380;10.326;2023-04-03T16:50:56;6.90;47.90
59881;DHT22;45751;51.380;10.326;2023-04-03T16:53:24;6.80;47.90
59881;DHT22;45751;51.380;10.326;2023-04-03T16:55:52;6.80;48.00
59881;DHT22;45751;51.380;10.326;2023-04-03T16:58:19;6.70;48.00
59881;DHT22;45751;51.380;10.326;2023-04-03T17:00:49;6.60;48.10
59881;DHT22;45751;51.380;10.326;2023-04-03T17:03:16;6.60;48.30
59881;DHT22;45751;51.380;10.326;2023-04-03T17:05:47;6.50;48.60
59881;DHT22;45751;51.380;10.326;2023-04-03T17:08:15;6.50;49.00
59881;DHT22;45751;51.380;10.326;2023-04-03T17:10:42;6.50;49.10
59881;DHT22;45751;51.380;10.326;2023-04-03T17:13:09;6.40;50.60
59881;DHT22;45751;51.380;10.326;2023-04-03T17:15:36;6.30;49.70
59881;DHT22;45751;51.380;10.326;2023-04-03T17:18:03;6.30;49.50
59881;DHT22;45751;51.380;10.326;2023-04-03T17:20:30;6.20;49.10
59881;DHT22;45751;51.380;10.326;2023-04-03T17:22:59;6.20;49.20
59881;DHT22;45751;51.380;10.326;2023-04-03T17:25:26;6.10;49.40
59881;DHT22;45751;51.380;10.326;2023-04-03T17:27:52;6.10;49.30
59881;DHT22;45751;51.380;10.326;2023-04-03T17:30:20;6.10;49.40
59881;DHT22;45751;51.380;10.326;2023-04-03T17:32:46;6.00;49.30
59881;DHT22;45751;51.380;10.326;2023-04-03T17:35:13;6.00;49.60
59881;DHT22;45751;51.380;10.326;2023-04-03T17:37:41;6.00;49.80